sensor_id;sensor_type;location;lat;lon;timestamp;pressure;altitude;pressure_sealevel;temperature;humidity
21742;BME280;11033;47.490;11.116;2022-10-17T00:00:39;93832.94;;;12.57;77.64
21742;BME280;11033;47.490;11.116;2022-10-17T00:03:05;93829.13;;;12.45;79.55
21742;BME280;11033;47.490;11.116;2022-10-17T00:05:30;93841.97;;;12.48;78.65
21742;BME280;11033;47.490;11.116;2022-10-17T00:07:55;93839.16;;;12.49;78.11
21742;BME280;11033;47.490;11.116;2022-10-17T00:10:21;93837.88;;;12.45;77.76
21742;BME280;11033;47.490;11.116;2022-10-17T00:12:46;93844.53;;;12.41;77.86
21742;BME280;11033;47.490;11.116;2022-10-17T00:15:15;93850.88;;;12.32;78.81
21742;BME280;11033;47.490;11.116;2022-10-17T00:17:41;93838.69;;;12.31;78.11
21742;BME280;11033;47.490;11.116;2022-10-17T00:20:06;93844.97;;;12.30;78.69
21742;BME280;11033;47.490;11.116;2022-10-17T00:22:32;93848.78;;;12.27;78.87
21742;BME280;11033;47.490;11.116;2022-10-17T00:24:57;93850.97;;;12.24;79.08
21742;BME280;11033;47.490;11.116;2022-10-17T00:27:23;93852.91;;;12.30;77.91
21742;BME280;11033;47.490;11.116;2022-10-17T00:29:49;93853.72;;;12.30;77.99
21742;BME280;11033;47.490;11.116;2022-10-17T00:32:15;93848.72;;;12.21;77.57
21742;BME280;11033;47.490;11.116;2022-10-17T00:34:40;93853.16;;;12.20;79.02
21742;BME280;11033;47.490;11.116;2022-10-17T00:37:05;93857.63;;;12.20;77.30
21742;BME280;11033;47.490;11.116;2022-10-17T00:39:31;93862.00;;;12.13;79.08
21742;BME280;11033;47.490;11.116;2022-10-17T00:41:56;93862.72;;;12.06;79.58
21742;BME280;11033;47.490;11.116;2022-10-17T00:46:53;93861.38;;;12.11;78.13
21742;BME280;11033;47.490;11.116;2022-10-17T00:49:18;93865.00;;;12.10;79.17
21742;BME280;11033;47.490;11.116;2022-10-17T00:51:46;93857.91;;;12.10;77.25
21742;BME280;11033;47.490;11.116;2022-10-17T00:54:15;93860.19;;;11.98;79.98
21742;BME280;11033;47.490;11.116;2022-10-17T00:56:42;93869.56;;;12.01;78.87
21742;BME280;11033;47.490;11.116;2022-10-17T00:59:10;93867.09;;;11.99;78.88
21742;BME280;11033;47.490;11.116;2022-10-17T01:01:37;93864.09;;;12.02;79.51
21742;BME280;11033;47.490;11.116;2022-10-17T01:04:03;93863.47;;;12.00;78.97
21742;BME280;11033;47.490;11.116;2022-10-17T01:06:28;93872.47;;;12.06;77.66
21742;BME280;11033;47.490;11.116;2022-10-17T01:08:54;93868.34;;;11.89;80.48
21742;BME280;11033;47.490;11.116;2022-10-17T01:11:36;93874.47;;;11.89;78.95
21742;BME280;11033;47.490;11.116;2022-10-17T01:16:43;93869.00;;;11.91;78.54
21742;BME280;11033;47.490;11.116;2022-10-17T01:22:08;93864.53;;;11.91;77.25
21742;BME280;11033;47.490;11.116;2022-10-17T01:25:16;93863.97;;;11.81;80.44
21742;BME280;11033;47.490;11.116;2022-10-17T01:31:08;93855.69;;;11.84;78.85
21742;BME280;11033;47.490;11.116;2022-10-17T01:34:00;93851.88;;;11.87;77.79
21742;BME280;11033;47.490;11.116;2022-10-17T01:36:48;93852.09;;;11.77;79.15
21742;BME280;11033;47.490;11.116;2022-10-17T01:39:37;93854.09;;;11.75;78.67
21742;BME280;11033;47.490;11.116;2022-10-17T01:42:21;93855.75;;;11.76;78.76
21742;BME280;11033;47.490;11.116;2022-10-17T01:45:12;93858.75;;;11.73;78.05
21742;BME280;11033;47.490;11.116;2022-10-17T01:47:40;93853.50;;;11.65;80.74
21742;BME280;11033;47.490;11.116;2022-10-17T01:50:40;93855.88;;;11.60;80.41
21742;BME280;11033;47.490;11.116;2022-10-17T01:53:15;93868.41;;;11.58;79.17
21742;BME280;11033;47.490;11.116;2022-10-17T01:55:45;93867.06;;;11.62;78.64
21742;BME280;11033;47.490;11.116;2022-10-17T01:58:25;93852.59;;;11.58;79.90
21742;BME280;11033;47.490;11.116;2022-10-17T02:00:54;93861.75;;;11.47;80.45
21742;BME280;11033;47.490;11.116;2022-10-17T02:03:20;93857.88;;;11.58;79.25
21742;BME280;11033;47.490;11.116;2022-10-17T02:05:46;93864.22;;;11.49;80.13
21742;BME280;11033;47.490;11.116;2022-10-17T02:08:12;93861.28;;;11.43;79.99
21742;BME280;11033;47.490;11.116;2022-10-17T02:10:43;93854.38;;;11.42;78.67
21742;BME280;11033;47.490;11.116;2022-10-17T02:18:57;93846.75;;;11.48;78.45
21742;BME280;11033;47.490;11.116;2022-10-17T02:21:48;93846.81;;;11.39;80.00
21742;BME280;11033;47.490;11.116;2022-10-17T02:24:48;93848.44;;;11.40;79.84
21742;BME280;11033;47.490;11.116;2022-10-17T02:29:55;93848.66;;;11.54;78.67
21742;BME280;11033;47.490;11.116;2022-10-17T02:32:27;93845.00;;;11.40;79.38
21742;BME280;11033;47.490;11.116;2022-10-17T02:35:00;93850.16;;;11.33;80.42
21742;BME280;11033;47.490;11.116;2022-10-17T02:37:28;93847.97;;;11.37;80.69
21742;BME280;11033;47.490;11.116;2022-10-17T02:39:57;93850.97;;;11.34;79.66
21742;BME280;11033;47.490;11.116;2022-10-17T02:42:24;93848.34;;;11.34;80.72
21742;BME280;11033;47.490;11.116;2022-10-17T02:44:51;93848.53;;;11.32;80.65
21742;BME280;11033;47.490;11.116;2022-10-17T02:47:34;93854.59;;;11.33;79.65
21742;BME280;11033;47.490;11.116;2022-10-17T02:50:00;93852.84;;;11.25;80.54
21742;BME280;11033;47.490;11.116;2022-10-17T02:52:36;93856.44;;;11.32;80.93
21742;BME280;11033;47.490;11.116;2022-10-17T02:55:20;93850.50;;;11.30;81.15
21742;BME280;11033;47.490;11.116;2022-10-17T02:57:51;93853.78;;;11.32;79.51
21742;BME280;11033;47.490;11.116;2022-10-17T03:00:18;93859.78;;;11.26;80.44
21742;BME280;11033;47.490;11.116;2022-10-17T03:02:49;93856.59;;;11.31;80.57
21742;BME280;11033;47.490;11.116;2022-10-17T03:05:19;93860.53;;;11.12;82.32
21742;BME280;11033;47.490;11.116;2022-10-17T03:07:44;93857.38;;;11.17;80.28
21742;BME280;11033;47.490;11.116;2022-10-17T03:10:10;93859.66;;;11.20;81.39
21742;BME280;11033;47.490;11.116;2022-10-17T03:12:35;93858.59;;;11.29;80.55
21742;BME280;11033;47.490;11.116;2022-10-17T03:15:01;93858.13;;;11.25;79.37
21742;BME280;11033;47.490;11.116;2022-10-17T03:17:26;93860.53;;;11.35;79.23
21742;BME280;11033;47.490;11.116;2022-10-17T03:19:51;93858.72;;;11.35;78.92
21742;BME280;11033;47.490;11.116;2022-10-17T03:22:17;93860.41;;;11.28;78.87
21742;BME280;11033;47.490;11.116;2022-10-17T03:24:42;93863.06;;;11.28;79.14
21742;BME280;11033;47.490;11.116;2022-10-17T03:27:07;93861.41;;;11.27;78.79
21742;BME280;11033;47.490;11.116;2022-10-17T03:29:32;93853.56;;;11.19;79.71
21742;BME280;11033;47.490;11.116;2022-10-17T03:31:58;93857.56;;;11.15;80.53
21742;BME280;11033;47.490;11.116;2022-10-17T03:34:23;93860.38;;;11.14;80.26
21742;BME280;11033;47.490;11.116;2022-10-17T03:36:48;93863.75;;;11.22;78.80
21742;BME280;11033;47.490;11.116;2022-10-17T03:39:14;93874.31;;;11.22;78.11
21742;BME280;11033;47.490;11.116;2022-10-17T03:41:39;93875.47;;;11.20;79.99
21742;BME280;11033;47.490;11.116;2022-10-17T03:44:04;93868.78;;;11.09;80.32
21742;BME280;11033;47.490;11.116;2022-10-17T03:46:30;93878.06;;;10.97;81.44
21742;BME280;11033;47.490;11.116;2022-10-17T03:48:55;93876.00;;;11.15;79.89
21742;BME280;11033;47.490;11.116;2022-10-17T03:51:20;93872.72;;;11.13;79.71
21742;BME280;11033;47.490;11.116;2022-10-17T03:53:46;93875.53;;;11.11;80.01
21742;BME280;11033;47.490;11.116;2022-10-17T03:56:22;93871.38;;;11.17;79.66
21742;BME280;11033;47.490;11.116;2022-10-17T03:58:48;93865.16;;;11.10;79.52
21742;BME280;11033;47.490;11.116;2022-10-17T04:01:15;93868.78;;;11.09;79.22
21742;BME280;11033;47.490;11.116;2022-10-17T04:03:41;93873.38;;;11.15;77.99
21742;BME280;11033;47.490;11.116;2022-10-17T04:06:07;93871.59;;;11.07;78.09
21742;BME280;11033;47.490;11.116;2022-10-17T04:08:34;93870.78;;;11.07;79.32
21742;BME280;11033;47.490;11.116;2022-10-17T04:11:01;93877.06;;;10.98;80.14
21742;BME280;11033;47.490;11.116;2022-10-17T04:13:27;93865.53;;;10.99;78.68
21742;BME280;11033;47.490;11.116;2022-10-17T04:16:01;93880.84;;;11.03;78.84
21742;BME280;11033;47.490;11.116;2022-10-17T04:18:27;93868.53;;;10.96;78.39
21742;BME280;11033;47.490;11.116;2022-10-17T04:20:52;93868.88;;;10.93;80.09
21742;BME280;11033;47.490;11.116;2022-10-17T04:23:18;93862.59;;;10.94;79.36
21742;BME280;11033;47.490;11.116;2022-10-17T04:25:43;93861.44;;;10.96;79.21
21742;BME280;11033;47.490;11.116;2022-10-17T04:28:09;93857.34;;;10.94;78.80
21742;BME280;11033;47.490;11.116;2022-10-17T04:30:34;93874.44;;;10.98;79.51
21742;BME280;11033;47.490;11.116;2022-10-17T04:33:00;93870.34;;;10.95;80.44
21742;BME280;11033;47.490;11.116;2022-10-17T04:35:25;93876.09;;;10.99;79.82
21742;BME280;11033;47.490;11.116;2022-10-17T04:37:50;93880.97;;;11.10;79.33
21742;BME280;11033;47.490;11.116;2022-10-17T04:40:16;93879.00;;;11.12;79.15
21742;BME280;11033;47.490;11.116;2022-10-17T04:42:41;93874.41;;;11.06;78.97
21742;BME280;11033;47.490;11.116;2022-10-17T04:45:07;93884.16;;;11.05;78.12
21742;BME280;11033;47.490;11.116;2022-10-17T04:47:32;93882.47;;;11.04;78.92
21742;BME280;11033;47.490;11.116;2022-10-17T04:49:58;93884.63;;;11.01;79.04
21742;BME280;11033;47.490;11.116;2022-10-17T04:52:23;93879.19;;;11.02;79.26
21742;BME280;11033;47.490;11.116;2022-10-17T04:54:50;93882.00;;;11.01;78.32
21742;BME280;11033;47.490;11.116;2022-10-17T04:57:15;93885.16;;;10.96;78.22
21742;BME280;11033;47.490;11.116;2022-10-17T04:59:41;93884.69;;;10.93;79.01
21742;BME280;11033;47.490;11.116;2022-10-17T05:02:06;93885.97;;;10.97;78.10
21742;BME280;11033;47.490;11.116;2022-10-17T05:04:31;93887.97;;;10.95;78.61
21742;BME280;11033;47.490;11.116;2022-10-17T05:06:57;93890.94;;;10.92;77.64
21742;BME280;11033;47.490;11.116;2022-10-17T05:09:22;93895.56;;;10.90;78.31
21742;BME280;11033;47.490;11.116;2022-10-17T05:11:47;93892.63;;;10.85;78.16
21742;BME280;11033;47.490;11.116;2022-10-17T05:14:14;93895.56;;;10.90;78.61
21742;BME280;11033;47.490;11.116;2022-10-17T05:16:39;93892.94;;;10.90;78.46
21742;BME280;11033;47.490;11.116;2022-10-17T05:19:04;93894.59;;;10.91;78.26
21742;BME280;11033;47.490;11.116;2022-10-17T05:21:30;93903.00;;;10.86;78.17
21742;BME280;11033;47.490;11.116;2022-10-17T05:23:55;93897.09;;;10.84;77.94
21742;BME280;11033;47.490;11.116;2022-10-17T05:26:21;93897.91;;;10.85;76.90
21742;BME280;11033;47.490;11.116;2022-10-17T05:28:47;93902.56;;;10.74;78.08
21742;BME280;11033;47.490;11.116;2022-10-17T05:31:13;93901.25;;;10.78;78.56
21742;BME280;11033;47.490;11.116;2022-10-17T05:33:39;93902.56;;;10.74;78.13
21742;BME280;11033;47.490;11.116;2022-10-17T05:36:05;93904.78;;;10.63;78.92
21742;BME280;11033;47.490;11.116;2022-10-17T05:38:31;93906.91;;;10.67;78.89
21742;BME280;11033;47.490;11.116;2022-10-17T05:40:58;93898.34;;;10.65;78.35
21742;BME280;11033;47.490;11.116;2022-10-17T05:43:23;93906.25;;;10.65;78.75
21742;BME280;11033;47.490;11.116;2022-10-17T05:45:49;93902.31;;;10.61;78.59
21742;BME280;11033;47.490;11.116;2022-10-17T05:48:14;93906.41;;;10.64;78.83
21742;BME280;11033;47.490;11.116;2022-10-17T05:50:39;93907.91;;;10.58;79.78
21742;BME280;11033;47.490;11.116;2022-10-17T05:53:05;93913.84;;;10.60;78.72
21742;BME280;11033;47.490;11.116;2022-10-17T05:55:30;93914.50;;;10.62;78.76
21742;BME280;11033;47.490;11.116;2022-10-17T05:57:55;93921.75;;;10.60;79.64
21742;BME280;11033;47.490;11.116;2022-10-17T06:00:21;93920.78;;;10.53;79.44
21742;BME280;11033;47.490;11.116;2022-10-17T06:02:46;93923.72;;;10.58;79.61
21742;BME280;11033;47.490;11.116;2022-10-17T06:05:13;93910.53;;;10.66;79.33
21742;BME280;11033;47.490;11.116;2022-10-17T06:07:39;93922.09;;;10.57;79.77
21742;BME280;11033;47.490;11.116;2022-10-17T06:10:05;93926.53;;;10.57;80.34
21742;BME280;11033;47.490;11.116;2022-10-17T06:12:30;93932.75;;;10.64;78.24
21742;BME280;11033;47.490;11.116;2022-10-17T06:14:56;93930.28;;;10.62;79.40
21742;BME280;11033;47.490;11.116;2022-10-17T06:17:21;93930.63;;;10.59;80.49
21742;BME280;11033;47.490;11.116;2022-10-17T06:19:46;93938.38;;;10.61;79.31
21742;BME280;11033;47.490;11.116;2022-10-17T06:22:12;93949.72;;;10.61;78.66
21742;BME280;11033;47.490;11.116;2022-10-17T06:24:37;93955.97;;;10.68;79.75
21742;BME280;11033;47.490;11.116;2022-10-17T06:27:03;93956.44;;;10.72;78.64
21742;BME280;11033;47.490;11.116;2022-10-17T06:29:28;93961.72;;;10.72;78.70
21742;BME280;11033;47.490;11.116;2022-10-17T06:31:53;93960.53;;;10.74;78.34
21742;BME280;11033;47.490;11.116;2022-10-17T06:34:19;93974.84;;;10.80;78.99
21742;BME280;11033;47.490;11.116;2022-10-17T06:36:44;93974.69;;;10.82;78.66
21742;BME280;11033;47.490;11.116;2022-10-17T06:39:10;93970.38;;;10.89;78.44
21742;BME280;11033;47.490;11.116;2022-10-17T06:41:35;93971.69;;;10.85;78.76
21742;BME280;11033;47.490;11.116;2022-10-17T06:44:00;93976.31;;;10.83;78.23
21742;BME280;11033;47.490;11.116;2022-10-17T06:46:30;93972.00;;;10.90;77.25
21742;BME280;11033;47.490;11.116;2022-10-17T06:48:55;93977.13;;;10.91;78.95
21742;BME280;11033;47.490;11.116;2022-10-17T06:51:20;93976.25;;;10.99;77.36
21742;BME280;11033;47.490;11.116;2022-10-17T06:53:46;93982.50;;;11.06;77.17
21742;BME280;11033;47.490;11.116;2022-10-17T06:56:11;93985.97;;;10.98;77.63
21742;BME280;11033;47.490;11.116;2022-10-17T06:58:38;93973.59;;;11.07;77.40
21742;BME280;11033;47.490;11.116;2022-10-17T07:01:06;93979.53;;;11.09;77.32
21742;BME280;11033;47.490;11.116;2022-10-17T07:03:32;93979.19;;;11.12;77.45
21742;BME280;11033;47.490;11.116;2022-10-17T07:05:58;93973.56;;;11.15;76.88
21742;BME280;11033;47.490;11.116;2022-10-17T07:08:24;93978.44;;;11.26;76.85
21742;BME280;11033;47.490;11.116;2022-10-17T07:10:50;93978.09;;;11.29;76.57
21742;BME280;11033;47.490;11.116;2022-10-17T07:13:16;93986.66;;;11.31;76.97
21742;BME280;11033;47.490;11.116;2022-10-17T07:15:42;93988.59;;;11.37;76.51
21742;BME280;11033;47.490;11.116;2022-10-17T07:18:07;94002.75;;;11.44;76.15
21742;BME280;11033;47.490;11.116;2022-10-17T07:20:33;93998.13;;;11.47;76.65
21742;BME280;11033;47.490;11.116;2022-10-17T07:22:58;94002.41;;;11.48;76.48
21742;BME280;11033;47.490;11.116;2022-10-17T07:25:24;94000.34;;;11.58;75.94
21742;BME280;11033;47.490;11.116;2022-10-17T07:27:50;94004.09;;;11.63;75.21
21742;BME280;11033;47.490;11.116;2022-10-17T07:30:16;94006.03;;;11.69;74.64
21742;BME280;11033;47.490;11.116;2022-10-17T07:32:41;94005.88;;;11.79;74.83
21742;BME280;11033;47.490;11.116;2022-10-17T07:35:08;94001.59;;;11.78;75.50
21742;BME280;11033;47.490;11.116;2022-10-17T07:37:33;93995.91;;;11.89;75.17
21742;BME280;11033;47.490;11.116;2022-10-17T07:39:59;93999.81;;;11.93;74.03
21742;BME280;11033;47.490;11.116;2022-10-17T07:42:24;94010.50;;;12.00;74.91
21742;BME280;11033;47.490;11.116;2022-10-17T07:44:50;94001.34;;;12.11;75.46
21742;BME280;11033;47.490;11.116;2022-10-17T07:47:15;94000.16;;;12.13;75.54
21742;BME280;11033;47.490;11.116;2022-10-17T07:49:40;94005.13;;;12.31;74.83
21742;BME280;11033;47.490;11.116;2022-10-17T07:52:09;94007.75;;;12.31;74.18
21742;BME280;11033;47.490;11.116;2022-10-17T07:54:36;94007.28;;;12.50;73.79
21742;BME280;11033;47.490;11.116;2022-10-17T07:57:01;94012.56;;;12.50;73.79
21742;BME280;11033;47.490;11.116;2022-10-17T07:59:26;94004.53;;;12.58;73.13
21742;BME280;11033;47.490;11.116;2022-10-17T08:01:54;94006.66;;;12.63;73.31
21742;BME280;11033;47.490;11.116;2022-10-17T08:04:20;93997.72;;;12.64;73.29
21742;BME280;11033;47.490;11.116;2022-10-17T08:06:45;94005.38;;;12.74;73.76
21742;BME280;11033;47.490;11.116;2022-10-17T08:09:11;94003.66;;;12.81;73.41
21742;BME280;11033;47.490;11.116;2022-10-17T08:11:36;93999.53;;;12.93;72.93
21742;BME280;11033;47.490;11.116;2022-10-17T08:14:01;93999.47;;;13.01;72.96
21742;BME280;11033;47.490;11.116;2022-10-17T08:16:27;93994.63;;;13.05;72.10
21742;BME280;11033;47.490;11.116;2022-10-17T08:18:52;93990.38;;;13.18;72.49
21742;BME280;11033;47.490;11.116;2022-10-17T08:21:18;93990.16;;;13.35;72.00
21742;BME280;11033;47.490;11.116;2022-10-17T08:23:43;93989.94;;;13.51;71.96
21742;BME280;11033;47.490;11.116;2022-10-17T08:26:09;93990.31;;;13.48;71.30
21742;BME280;11033;47.490;11.116;2022-10-17T08:28:38;93987.53;;;13.56;72.29
21742;BME280;11033;47.490;11.116;2022-10-17T08:31:10;93987.84;;;13.82;71.55
21742;BME280;11033;47.490;11.116;2022-10-17T08:33:35;93981.25;;;14.21;70.74
21742;BME280;11033;47.490;11.116;2022-10-17T08:36:03;93985.69;;;14.35;70.19
21742;BME280;11033;47.490;11.116;2022-10-17T08:38:30;93984.69;;;14.36;68.35
21742;BME280;11033;47.490;11.116;2022-10-17T08:41:06;93985.28;;;14.59;67.03
21742;BME280;11033;47.490;11.116;2022-10-17T08:46:18;93980.25;;;14.99;67.43
21742;BME280;11033;47.490;11.116;2022-10-17T08:48:45;93972.47;;;15.39;65.14
21742;BME280;11033;47.490;11.116;2022-10-17T08:51:18;93971.63;;;15.93;62.10
21742;BME280;11033;47.490;11.116;2022-10-17T08:53:57;93976.16;;;16.12;62.04
21742;BME280;11033;47.490;11.116;2022-10-17T08:56:36;93967.97;;;16.20;63.87
21742;BME280;11033;47.490;11.116;2022-10-17T08:59:11;93975.38;;;16.31;65.52
21742;BME280;11033;47.490;11.116;2022-10-17T09:01:45;93974.13;;;16.60;64.26
21742;BME280;11033;47.490;11.116;2022-10-17T09:05:06;93975.34;;;16.84;65.21
21742;BME280;11033;47.490;11.116;2022-10-17T09:07:27;93971.00;;;17.16;65.05
21742;BME280;11033;47.490;11.116;2022-10-17T09:18:10;93969.41;;;18.36;63.61
21742;BME280;11033;47.490;11.116;2022-10-17T09:20:43;93955.22;;;18.67;61.03
21742;BME280;11033;47.490;11.116;2022-10-17T09:23:36;93961.97;;;18.94;60.32
21742;BME280;11033;47.490;11.116;2022-10-17T09:26:08;93966.72;;;19.11;60.63
21742;BME280;11033;47.490;11.116;2022-10-17T09:28:37;93958.41;;;19.37;58.46
21742;BME280;11033;47.490;11.116;2022-10-17T09:31:08;93960.81;;;19.63;57.98
21742;BME280;11033;47.490;11.116;2022-10-17T09:33:39;93960.78;;;19.82;59.14
21742;BME280;11033;47.490;11.116;2022-10-17T09:36:33;93949.59;;;20.03;55.70
21742;BME280;11033;47.490;11.116;2022-10-17T09:39:02;93957.38;;;20.35;55.04
21742;BME280;11033;47.490;11.116;2022-10-17T09:41:34;93952.19;;;20.63;55.54
21742;BME280;11033;47.490;11.116;2022-10-17T09:46:38;93952.59;;;21.02;50.16
21742;BME280;11033;47.490;11.116;2022-10-17T09:49:12;93949.72;;;22.07;51.47
21742;BME280;11033;47.490;11.116;2022-10-17T09:51:39;93951.56;;;23.35;50.83
21742;BME280;11033;47.490;11.116;2022-10-17T09:54:18;93956.44;;;23.55;47.88
21742;BME280;11033;47.490;11.116;2022-10-17T09:56:57;93959.50;;;24.29;48.73
21742;BME280;11033;47.490;11.116;2022-10-17T09:59:57;93948.84;;;25.46;45.32
21742;BME280;11033;47.490;11.116;2022-10-17T10:02:25;93948.94;;;26.23;41.22
21742;BME280;11033;47.490;11.116;2022-10-17T10:05:00;93948.75;;;26.61;45.35
21742;BME280;11033;47.490;11.116;2022-10-17T10:07:31;93955.22;;;27.71;43.24
21742;BME280;11033;47.490;11.116;2022-10-17T10:09:58;93949.41;;;28.58;43.77
21742;BME280;11033;47.490;11.116;2022-10-17T10:12:33;93958.31;;;29.65;43.01
21742;BME280;11033;47.490;11.116;2022-10-17T10:14:59;93951.00;;;29.03;36.09
21742;BME280;11033;47.490;11.116;2022-10-17T10:17:37;93956.59;;;29.75;37.86
21742;BME280;11033;47.490;11.116;2022-10-17T10:20:24;93946.09;;;31.10;39.32
21742;BME280;11033;47.490;11.116;2022-10-17T10:23:12;93951.97;;;32.37;37.14
21742;BME280;11033;47.490;11.116;2022-10-17T10:25:50;93948.66;;;32.90;36.06
21742;BME280;11033;47.490;11.116;2022-10-17T10:28:17;93948.38;;;32.77;29.78
21742;BME280;11033;47.490;11.116;2022-10-17T10:30:47;93949.72;;;33.78;34.15
21742;BME280;11033;47.490;11.116;2022-10-17T10:33:14;93948.97;;;34.83;33.17
21742;BME280;11033;47.490;11.116;2022-10-17T10:35:39;93950.09;;;34.99;30.66
21742;BME280;11033;47.490;11.116;2022-10-17T10:38:14;93950.25;;;36.10;33.46
21742;BME280;11033;47.490;11.116;2022-10-17T10:40:46;93946.66;;;36.18;30.33
21742;BME280;11033;47.490;11.116;2022-10-17T10:43:31;93945.09;;;36.08;28.60
21742;BME280;11033;47.490;11.116;2022-10-17T10:45:57;93946.34;;;33.81;25.58
21742;BME280;11033;47.490;11.116;2022-10-17T10:48:34;93951.28;;;34.41;26.42
21742;BME280;11033;47.490;11.116;2022-10-17T10:51:26;93938.00;;;36.45;30.10
21742;BME280;11033;47.490;11.116;2022-10-17T10:56:40;93955.31;;;38.53;26.43
21742;BME280;11033;47.490;11.116;2022-10-17T10:59:12;93948.56;;;38.62;26.56
21742;BME280;11033;47.490;11.116;2022-10-17T11:04:33;93947.03;;;39.70;26.48
21742;BME280;11033;47.490;11.116;2022-10-17T11:07:10;93949.28;;;38.02;20.73
21742;BME280;11033;47.490;11.116;2022-10-17T11:12:12;93945.38;;;39.97;26.27
21742;BME280;11033;47.490;11.116;2022-10-17T11:14:45;93947.59;;;39.07;25.29
21742;BME280;11033;47.490;11.116;2022-10-17T11:17:26;93955.03;;;41.74;25.60
21742;BME280;11033;47.490;11.116;2022-10-17T11:22:57;93947.41;;;42.10;21.34
21742;BME280;11033;47.490;11.116;2022-10-17T11:25:31;93954.66;;;42.41;23.51
21742;BME280;11033;47.490;11.116;2022-10-17T11:27:57;93941.81;;;41.10;22.05
21742;BME280;11033;47.490;11.116;2022-10-17T11:30:26;93950.72;;;42.91;22.37
21742;BME280;11033;47.490;11.116;2022-10-17T11:32:56;93952.56;;;43.07;20.84
21742;BME280;11033;47.490;11.116;2022-10-17T11:35:31;93948.91;;;42.76;20.12
21742;BME280;11033;47.490;11.116;2022-10-17T11:40:39;93956.53;;;44.03;22.33
21742;BME280;11033;47.490;11.116;2022-10-17T11:43:16;93947.81;;;43.07;18.39
21742;BME280;11033;47.490;11.116;2022-10-17T11:45:51;93953.91;;;43.50;18.11
21742;BME280;11033;47.490;11.116;2022-10-17T11:48:38;93953.00;;;42.36;17.57
21742;BME280;11033;47.490;11.116;2022-10-17T11:51:10;93951.94;;;42.22;18.25
21742;BME280;11033;47.490;11.116;2022-10-17T11:56:47;93953.53;;;43.21;21.26
21742;BME280;11033;47.490;11.116;2022-10-17T12:02:08;93948.03;;;42.72;19.38
21742;BME280;11033;47.490;11.116;2022-10-17T12:04:59;93947.47;;;39.72;19.47
21742;BME280;11033;47.490;11.116;2022-10-17T12:07:41;93938.13;;;41.22;20.71
21742;BME280;11033;47.490;11.116;2022-10-17T12:18:46;93944.00;;;45.18;17.45
21742;BME280;11033;47.490;11.116;2022-10-17T12:21:12;93940.97;;;41.44;18.99
21742;BME280;11033;47.490;11.116;2022-10-17T12:23:38;93940.28;;;39.83;20.36
21742;BME280;11033;47.490;11.116;2022-10-17T12:26:07;93941.41;;;44.37;19.36
21742;BME280;11033;47.490;11.116;2022-10-17T12:31:04;93953.81;;;42.37;18.68
21742;BME280;11033;47.490;11.116;2022-10-17T12:38:47;93958.38;;;46.25;19.58
21742;BME280;11033;47.490;11.116;2022-10-17T12:41:13;93946.59;;;45.59;18.27
21742;BME280;11033;47.490;11.116;2022-10-17T12:43:49;93950.22;;;45.60;19.09
21742;BME280;11033;47.490;11.116;2022-10-17T12:52:18;93950.25;;;45.70;16.66
21742;BME280;11033;47.490;11.116;2022-10-17T13:03:17;93941.66;;;46.71;17.29
21742;BME280;11033;47.490;11.116;2022-10-17T13:05:48;93942.47;;;46.51;17.20
21742;BME280;11033;47.490;11.116;2022-10-17T13:08:24;93937.56;;;47.40;16.66
21742;BME280;11033;47.490;11.116;2022-10-17T13:10:52;93944.31;;;47.60;16.08
21742;BME280;11033;47.490;11.116;2022-10-17T13:15:58;93934.47;;;47.17;15.68
21742;BME280;11033;47.490;11.116;2022-10-17T13:18:26;93946.72;;;48.35;17.69
21742;BME280;11033;47.490;11.116;2022-10-17T13:21:13;93936.59;;;48.55;15.65
21742;BME280;11033;47.490;11.116;2022-10-17T13:23:39;93939.91;;;47.66;15.96
21742;BME280;11033;47.490;11.116;2022-10-17T13:28:39;93938.41;;;45.98;19.19
21742;BME280;11033;47.490;11.116;2022-10-17T13:31:04;93946.44;;;47.07;17.94
21742;BME280;11033;47.490;11.116;2022-10-17T13:33:33;93948.44;;;46.74;18.21
21742;BME280;11033;47.490;11.116;2022-10-17T13:36:02;93947.09;;;48.41;17.53
21742;BME280;11033;47.490;11.116;2022-10-17T13:38:33;93958.56;;;48.53;17.63
21742;BME280;11033;47.490;11.116;2022-10-17T13:41:00;93954.78;;;49.22;16.52
21742;BME280;11033;47.490;11.116;2022-10-17T13:43:26;93964.28;;;47.59;17.19
21742;BME280;11033;47.490;11.116;2022-10-17T13:45:54;93951.63;;;42.72;18.15
21742;BME280;11033;47.490;11.116;2022-10-17T13:48:23;93953.16;;;43.53;18.49
21742;BME280;11033;47.490;11.116;2022-10-17T13:50:57;93948.19;;;44.03;17.24
21742;BME280;11033;47.490;11.116;2022-10-17T13:58:28;93941.25;;;46.59;17.57
21742;BME280;11033;47.490;11.116;2022-10-17T14:00:54;93935.34;;;44.76;16.90
21742;BME280;11033;47.490;11.116;2022-10-17T14:03:21;93943.47;;;44.95;17.00
21742;BME280;11033;47.490;11.116;2022-10-17T14:06:44;93942.75;;;43.46;17.00
21742;BME280;11033;47.490;11.116;2022-10-17T14:09:02;93947.91;;;45.90;18.15
21742;BME280;11033;47.490;11.116;2022-10-17T14:13:57;93947.28;;;45.38;18.52
21742;BME280;11033;47.490;11.116;2022-10-17T14:16:25;93944.88;;;46.88;17.50
21742;BME280;11033;47.490;11.116;2022-10-17T14:18:52;93941.66;;;46.57;17.09
21742;BME280;11033;47.490;11.116;2022-10-17T14:21:23;93930.44;;;46.04;17.42
21742;BME280;11033;47.490;11.116;2022-10-17T14:23:51;93942.44;;;47.00;17.50
21742;BME280;11033;47.490;11.116;2022-10-17T14:26:22;93938.50;;;46.73;17.14
21742;BME280;11033;47.490;11.116;2022-10-17T14:29:02;93941.13;;;44.49;17.31
21742;BME280;11033;47.490;11.116;2022-10-17T14:31:30;93929.09;;;43.30;19.87
21742;BME280;11033;47.490;11.116;2022-10-17T14:33:56;93932.03;;;46.05;18.00
21742;BME280;11033;47.490;11.116;2022-10-17T14:36:39;93932.16;;;44.26;19.31
21742;BME280;11033;47.490;11.116;2022-10-17T14:39:15;93927.47;;;44.85;18.01